Time;durP1;ratioP1;P1;durP2;ratioP2;P2;SDS_P1;SDS_P2;PMS_P1;PMS_P2;Temp;Humidity;BMP_temperature;BMP_pressure;BME280_temperature;BME280_humidity;BME280_pressure;Samples;Min_cycle;Max_cycle;Signal;HPM_P1;HPM_P2
2021/09/24 00:01:35;;;;;;;5.10;3.60;;;;;;;14.21;69.08;95804.73;115752;1196;28031;-82
2021/09/24 00:04:06;;;;;;;7.10;3.40;;;;;;;14.19;69.01;95792.02;115699;1196;32732;-82
2021/09/24 00:06:37;;;;;;;4.00;3.00;;;;;;;14.23;68.51;95794.93;115768;1196;25542;-82
2021/09/24 00:09:06;;;;;;;;;;;;;;;14.26;68.15;95790.61;115830;1196;26932;-82
2021/09/24 00:11:37;;;;;;;5.40;3.30;;;;;;;14.28;68.08;95784.14;115735;1195;27677;-82
2021/09/24 00:14:09;;;;;;;6.30;3.60;;;;;;;14.30;68.13;95792.95;115767;1195;31230;-82
2021/09/24 00:16:40;;;;;;;6.70;3.10;;;;;;;14.29;68.14;95794.21;115700;1196;26800;-82
2021/09/24 00:19:11;;;;;;;4.40;3.10;;;;;;;14.28;68.19;95796.10;115722;1196;59039;-82
2021/09/24 00:21:42;;;;;;;8.20;3.40;;;;;;;14.29;67.83;95805.04;115745;1196;29855;-83
2021/09/24 00:24:12;;;;;;;5.20;3.30;;;;;;;14.32;67.64;95804.77;115640;1197;27471;-83
2021/09/24 00:26:43;;;;;;;4.60;3.20;;;;;;;14.33;67.65;95805.88;115722;1196;26065;-83
2021/09/24 00:29:15;;;;;;;5.90;3.20;;;;;;;14.32;67.66;95801.56;115647;1197;29033;-82
2021/09/24 00:31:45;;;;;;;8.90;3.90;;;;;;;14.32;67.51;95797.60;115863;1196;30063;-83
2021/09/24 00:34:16;;;;;;;4.50;3.20;;;;;;;14.30;67.79;95799.91;115876;1190;28371;-83
2021/09/24 00:36:47;;;;;;;6.70;3.80;;;;;;;14.25;68.25;95792.79;115839;1196;26494;-84
2021/09/24 00:39:17;;;;;;;6.10;3.40;;;;;;;14.17;68.89;95792.85;115814;1196;29655;-82
2021/09/24 00:41:48;;;;;;;6.80;3.60;;;;;;;14.09;69.16;95781.58;115740;1196;33104;-82
2021/09/24 00:44:19;;;;;;;5.10;3.40;;;;;;;14.04;69.46;95780.89;115802;1196;31277;-83
2021/09/24 00:46:51;;;;;;;7.20;3.70;;;;;;;14.02;69.77;95786.30;115730;1195;27496;-81
2021/09/24 00:49:22;;;;;;;6.90;3.80;;;;;;;13.94;70.38;95793.23;115754;1196;24970;-81
2021/09/24 00:51:53;;;;;;;6.00;4.10;;;;;;;13.87;70.86;95792.16;115774;1196;43712;-82
2021/09/24 00:54:24;;;;;;;4.10;3.10;;;;;;;13.80;71.58;95788.29;115782;1196;29219;-82
2021/09/24 00:56:55;;;;;;;7.80;4.00;;;;;;;13.73;72.46;95795.02;115706;1196;27786;-82
2021/09/24 00:59:27;;;;;;;4.20;3.60;;;;;;;13.63;73.00;95802.96;115729;1196;31016;-82
2021/09/24 01:01:58;;;;;;;6.40;3.70;;;;;;;13.52;73.91;95802.30;115808;1196;38072;-82
2021/09/24 01:04:29;;;;;;;6.70;4.10;;;;;;;13.42;74.79;95812.81;115781;1195;26970;-84
2021/09/24 01:07:00;;;;;;;6.70;3.80;;;;;;;13.29;75.72;95817.52;115773;1196;28228;-82
2021/09/24 01:09:32;;;;;;;6.10;3.80;;;;;;;13.18;76.28;95826.90;115732;1196;27398;-83
2021/09/24 01:12:03;;;;;;;7.20;4.00;;;;;;;13.10;77.30;95837.31;115792;1196;28467;-82
2021/09/24 01:14:34;;;;;;;8.20;4.00;;;;;;;12.99;77.94;95832.21;115756;1196;43036;-83
2021/09/24 01:17:05;;;;;;;5.30;3.50;;;;;;;12.91;78.22;95831.38;115774;1196;29348;-83
2021/09/24 01:19:36;;;;;;;5.40;3.70;;;;;;;12.86;78.73;95836.33;115790;1195;33264;-82
2021/09/24 01:22:07;;;;;;;7.00;4.60;;;;;;;12.83;79.46;95832.48;115782;1196;27746;-83
2021/09/24 01:24:37;;;;;;;5.80;4.40;;;;;;;12.78;80.10;95829.45;115823;1196;31669;-82
2021/09/24 01:27:08;;;;;;;5.70;3.80;;;;;;;12.74;80.45;95831.45;115842;1196;27343;-82
2021/09/24 01:29:39;;;;;;;7.00;4.20;;;;;;;12.68;80.73;95831.79;115760;1196;30567;-82
2021/09/24 01:32:10;;;;;;;5.90;3.40;;;;;;;12.63;81.36;95835.17;115774;1189;27088;-83
2021/09/24 01:34:41;;;;;;;5.60;4.00;;;;;;;12.58;81.81;95842.88;115662;1198;28023;-82
2021/09/24 01:37:12;;;;;;;7.00;4.00;;;;;;;12.55;81.88;95831.60;115654;1197;40744;-82
2021/09/24 01:39:42;;;;;;;7.90;4.20;;;;;;;12.52;81.93;95824.16;115768;1196;27332;-82
2021/09/24 01:42:13;;;;;;;6.70;4.50;;;;;;;12.50;82.49;95814.97;115838;1196;27392;-82
2021/09/24 01:44:44;;;;;;;6.20;4.10;;;;;;;12.46;82.69;95809.38;115831;1196;31579;-83
2021/09/24 01:47:15;;;;;;;5.40;4.00;;;;;;;12.44;83.14;95804.77;115783;1196;40752;-82
2021/09/24 01:49:46;;;;;;;6.80;4.20;;;;;;;12.41;83.72;95798.89;115718;1196;58845;-83
2021/09/24 01:52:16;;;;;;;9.80;4.50;;;;;;;12.39;84.03;95798.06;115886;1196;29636;-82
2021/09/24 01:54:47;;;;;;;8.20;4.50;;;;;;;12.37;84.22;95795.70;115854;1196;26704;-82
2021/09/24 01:57:18;;;;;;;6.80;4.30;;;;;;;12.37;84.20;95796.85;115767;1196;30214;-82
2021/09/24 01:59:48;;;;;;;7.60;4.80;;;;;;;12.37;84.49;95788.95;115869;1196;28182;-82
2021/09/24 02:02:19;;;;;;;4.50;3.70;;;;;;;12.38;84.53;95795.52;115798;1196;30227;-83
2021/09/24 02:04:50;;;;;;;6.80;4.50;;;;;;;12.39;84.85;95791.51;115728;1196;31080;-82
2021/09/24 02:07:21;;;;;;;6.50;4.40;;;;;;;12.40;84.88;95788.20;115772;1196;75942;-81
2021/09/24 02:09:52;;;;;;;6.60;4.10;;;;;;;12.41;85.13;95790.92;115813;1196;55164;-82
2021/09/24 02:12:23;;;;;;;7.60;4.10;;;;;;;12.42;85.01;95793.39;115687;1196;28635;-82
2021/09/24 02:14:53;;;;;;;8.50;4.30;;;;;;;12.43;85.11;95793.79;115804;1196;27438;-81
2021/09/24 02:17:24;;;;;;;8.40;4.30;;;;;;;12.43;85.06;95791.23;115796;1196;29303;-81
2021/09/24 02:19:55;;;;;;;8.40;4.80;;;;;;;12.45;85.24;95788.10;115771;1196;30341;-82
2021/09/24 02:22:24;;;;;;;;;;;;;;;12.44;85.17;95788.77;115759;1196;28565;-81
2021/09/24 02:24:55;;;;;;;6.70;4.20;;;;;;;12.46;85.20;95801.89;115713;1196;31813;-80
2021/09/24 02:27:25;;;;;;;4.90;3.30;;;;;;;12.48;85.26;95806.87;115643;1196;29673;-79
2021/09/24 02:29:56;;;;;;;8.10;4.00;;;;;;;12.53;85.28;95810.33;115805;1196;29665;-83
2021/09/24 02:32:25;;;;;;;;;;;;;;;12.55;85.29;95801.65;115729;1196;34089;-83
2021/09/24 02:34:58;;;;;;;5.80;4.20;;;;;;;12.56;85.09;95809.03;115741;1189;31908;-82
2021/09/24 02:37:29;;;;;;;6.70;4.70;;;;;;;12.54;85.08;95803.33;115715;1196;28900;-82
2021/09/24 02:40:00;;;;;;;5.70;4.00;;;;;;;12.55;85.04;95793.58;115781;1196;28211;-82
2021/09/24 02:42:30;;;;;;;5.70;3.90;;;;;;;12.53;85.02;95790.16;115730;1196;34086;-81
2021/09/24 02:45:01;;;;;;;6.50;4.20;;;;;;;12.51;84.94;95793.08;115710;1196;28499;-83
2021/09/24 02:47:32;;;;;;;6.10;4.10;;;;;;;12.51;85.09;95795.89;115758;1195;26494;-81
2021/09/24 02:50:01;;;;;;;;;;;;;;;12.56;85.15;95799.48;115721;1196;29852;-82
2021/09/24 02:52:31;;;;;;;6.30;4.00;;;;;;;12.62;85.05;95798.08;115735;1196;30490;-81
2021/09/24 02:55:02;;;;;;;5.70;3.90;;;;;;;12.67;84.92;95803.52;115763;1196;28170;-82
2021/09/24 02:57:33;;;;;;;4.90;3.80;;;;;;;12.70;84.73;95810.93;115749;1196;27584;-82
2021/09/24 03:00:06;;;;;;;7.20;4.10;;;;;;;12.73;84.61;95816.96;115650;1197;29852;-81
2021/09/24 03:02:37;;;;;;;7.50;4.20;;;;;;;12.75;84.53;95813.27;115640;1190;34982;-82
2021/09/24 03:05:09;;;;;;;5.70;4.20;;;;;;;12.76;84.50;95821.72;115610;1175;28248;-82
2021/09/24 03:07:40;;;;;;;6.40;4.10;;;;;;;12.80;84.35;95825.64;115641;1198;26228;-81
2021/09/24 03:10:13;;;;;;;5.00;4.00;;;;;;;12.83;84.21;95825.16;115633;1198;28247;-82
2021/09/24 03:12:44;;;;;;;7.30;3.90;;;;;;;12.84;84.12;95835.27;115594;1184;29414;-82
2021/09/24 03:15:15;;;;;;;5.60;4.10;;;;;;;12.85;83.88;95838.17;115645;1194;30542;-82
2021/09/24 03:17:45;;;;;;;7.60;3.60;;;;;;;12.86;83.90;95839.42;115666;1197;28281;-82
2021/09/24 03:20:15;;;;;;;;;;;;;;;12.89;83.64;95835.61;115661;1197;31321;-82
2021/09/24 03:22:45;;;;;;;5.50;3.50;;;;;;;12.96;83.57;95844.98;115764;1197;25757;-82
2021/09/24 03:25:16;;;;;;;6.10;3.90;;;;;;;13.00;83.60;95855.96;115738;1197;36732;-82
2021/09/24 03:27:47;;;;;;;5.40;4.00;;;;;;;12.99;83.67;95855.38;115683;1192;40934;-82
2021/09/24 03:30:18;;;;;;;7.10;4.20;;;;;;;12.97;83.92;95873.84;115653;1192;28188;-82
2021/09/24 03:32:49;;;;;;;7.40;4.60;;;;;;;12.97;83.93;95871.65;115647;1198;28689;-82
2021/09/24 03:35:18;;;;;;;;;;;;;;;13.04;83.93;95877.19;115675;1198;26815;-82
2021/09/24 03:37:49;;;;;;;5.90;4.10;;;;;;;13.09;83.79;95885.02;115720;1197;26108;-82
2021/09/24 03:40:19;;;;;;;5.70;3.80;;;;;;;13.13;83.64;95890.98;115760;1190;29678;-82
2021/09/24 03:42:50;;;;;;;5.50;4.00;;;;;;;13.16;83.64;95898.43;115584;1197;29962;-81
2021/09/24 03:45:21;;;;;;;6.20;4.00;;;;;;;13.15;83.67;95895.02;115619;1190;38066;-81
2021/09/24 03:47:52;;;;;;;6.40;4.50;;;;;;;13.13;83.73;95893.48;115603;1198;26001;-81
2021/09/24 03:50:24;;;;;;;6.40;4.60;;;;;;;13.11;83.86;95895.36;115621;1197;28760;-82
2021/09/24 03:52:55;;;;;;;7.70;4.90;;;;;;;13.09;83.96;95896.83;115637;1198;28745;-82
2021/09/24 03:55:26;;;;;;;7.80;4.60;;;;;;;13.08;83.99;95902.86;115667;1197;29040;-82
2021/09/24 03:57:57;;;;;;;7.00;4.90;;;;;;;13.06;84.19;95914.77;115658;1196;30546;-82
2021/09/24 04:00:26;;;;;;;;;;;;;;;13.06;84.29;95918.95;115744;1196;29908;-81
2021/09/24 04:02:57;;;;;;;5.30;3.10;;;;;;;13.03;84.51;95920.20;115765;1190;25515;-83
2021/09/24 04:05:28;;;;;;;5.10;3.00;;;;;;;12.98;84.04;95927.65;115682;1197;31113;-82
2021/09/24 04:07:58;;;;;;;6.10;2.60;;;;;;;12.94;83.60;95925.52;115692;1195;26624;-82
2021/09/24 04:10:28;;;;;;;;;;;;;;;12.90;83.21;95922.80;115771;1194;30550;-82
2021/09/24 04:12:59;;;;;;;5.80;2.40;;;;;;;12.87;82.63;95912.75;115781;1196;24850;-81
2021/09/24 04:15:30;;;;;;;3.10;1.20;;;;;;;12.84;81.62;95900.82;115780;1196;30475;-83
2021/09/24 04:18:01;;;;;;;2.80;1.20;;;;;;;12.76;81.62;95913.38;115764;1196;27644;-83
2021/09/24 04:20:33;;;;;;;1.70;1.30;;;;;;;12.61;81.41;95908.89;115765;1196;30068;-82
2021/09/24 04:23:03;;;;;;;1.60;1.30;;;;;;;12.51;80.98;95922.08;115770;1196;30194;-82
2021/09/24 04:25:34;;;;;;;2.70;1.20;;;;;;;12.44;81.16;95933.59;115762;1196;28190;-82
2021/09/24 04:28:05;;;;;;;5.10;1.90;;;;;;;12.41;80.99;95922.83;115755;1196;29572;-82
2021/09/24 04:30:36;;;;;;;3.00;1.10;;;;;;;12.40;80.68;95924.77;115771;1196;26698;-81
2021/09/24 04:33:07;;;;;;;2.90;1.10;;;;;;;12.38;80.37;95918.32;115701;1196;28333;-81
2021/09/24 04:35:38;;;;;;;4.60;1.60;;;;;;;12.37;80.15;95932.38;115797;1195;28035;-82
2021/09/24 04:38:08;;;;;;;4.50;1.60;;;;;;;12.36;80.17;95937.41;115769;1190;26335;-82
2021/09/24 04:40:40;;;;;;;4.00;1.70;;;;;;;12.34;79.63;95948.61;115757;1183;29372;-82
2021/09/24 04:43:11;;;;;;;3.60;1.40;;;;;;;12.35;79.62;95955.30;115763;1196;27749;-81
2021/09/24 04:45:42;;;;;;;3.00;1.50;;;;;;;12.34;79.56;95968.87;115739;1196;26874;-82
2021/09/24 04:48:13;;;;;;;5.90;1.80;;;;;;;12.32;79.54;95980.46;115726;1189;29151;-83
2021/09/24 04:50:44;;;;;;;4.90;2.10;;;;;;;12.31;79.23;95969.23;115773;1184;27962;-82
2021/09/24 04:53:14;;;;;;;4.80;1.60;;;;;;;12.30;78.87;95980.11;115761;1196;27991;-82
2021/09/24 04:55:45;;;;;;;3.80;1.80;;;;;;;12.29;78.11;95986.55;115759;1196;30407;-82
2021/09/24 04:58:16;;;;;;;3.40;2.00;;;;;;;12.27;78.39;95981.83;115658;1197;28946;-81
2021/09/24 05:00:49;;;;;;;4.80;2.10;;;;;;;12.25;78.25;95997.60;115831;1189;28103;-81
2021/09/24 05:03:20;;;;;;;5.60;2.30;;;;;;;12.23;77.64;95987.12;115803;1195;28652;-81
2021/09/24 05:05:50;;;;;;;1.60;1.50;;;;;;;12.21;77.74;95998.42;115733;1196;31024;-82
2021/09/24 05:08:21;;;;;;;5.00;1.90;;;;;;;12.19;77.29;96002.61;115771;1196;34048;-81
2021/09/24 05:10:52;;;;;;;2.50;1.50;;;;;;;12.19;77.08;95989.08;115747;1196;29820;-80
2021/09/24 05:13:22;;;;;;;4.10;1.90;;;;;;;12.19;76.99;96005.70;115744;1196;26226;-81
2021/09/24 05:15:53;;;;;;;4.40;2.10;;;;;;;12.18;77.44;96011.11;115760;1196;26363;-81
2021/09/24 05:18:24;;;;;;;5.10;2.30;;;;;;;12.15;77.05;96006.34;115748;1196;29139;-81
2021/09/24 05:20:55;;;;;;;3.90;1.80;;;;;;;12.14;76.85;96017.81;115780;1196;26298;-81
2021/09/24 05:23:26;;;;;;;6.20;2.10;;;;;;;12.12;76.84;96013.64;115753;1190;30093;-81
2021/09/24 05:25:57;;;;;;;3.00;1.70;;;;;;;12.11;76.57;96010.38;115757;1196;30220;-82
2021/09/24 05:28:28;;;;;;;3.00;1.90;;;;;;;12.10;76.80;96000.14;115717;1196;26235;-82
2021/09/24 05:30:58;;;;;;;4.50;2.20;;;;;;;12.08;77.19;96018.19;115704;1196;29558;-82
2021/09/24 05:33:29;;;;;;;2.80;1.60;;;;;;;12.06;77.59;96026.06;115751;1196;30010;-82
2021/09/24 05:35:58;;;;;;;;;;;;;;;12.06;77.50;96019.90;115739;1195;30620;-82
2021/09/24 05:38:29;;;;;;;2.80;1.80;;;;;;;12.04;77.51;96014.89;115742;1196;28732;-81
2021/09/24 05:41:00;;;;;;;4.90;2.30;;;;;;;12.03;77.71;96014.39;115776;1196;35502;-82
2021/09/24 05:43:31;;;;;;;4.60;2.10;;;;;;;12.02;78.09;96023.38;115727;1196;27445;-82
2021/09/24 05:46:01;;;;;;;4.80;2.30;;;;;;;12.01;78.40;96022.34;115745;1196;28079;-82
2021/09/24 05:48:33;;;;;;;4.00;1.80;;;;;;;12.00;78.54;96016.73;115768;1195;28657;-82
2021/09/24 05:51:04;;;;;;;4.90;2.20;;;;;;;11.99;78.52;96019.11;115693;1196;27480;-81
2021/09/24 05:53:33;;;;;;;;;;;;;;;12.00;78.33;96012.65;115684;1196;26075;-82
2021/09/24 05:56:04;;;;;;;3.30;1.80;;;;;;;12.02;78.46;96023.97;115767;1189;24237;-82
2021/09/24 05:58:36;;;;;;;7.20;2.20;;;;;;;12.04;78.46;96010.02;115700;1196;73578;-81
2021/09/24 06:01:07;;;;;;;2.90;1.90;;;;;;;12.05;77.68;96010.35;115800;1190;27709;-82
2021/09/24 06:03:38;;;;;;;5.60;1.80;;;;;;;12.06;78.01;96017.18;115763;1196;68605;-81
2021/09/24 06:06:09;;;;;;;3.70;2.00;;;;;;;12.06;78.40;96018.41;115774;1196;26478;-81
2021/09/24 06:08:40;;;;;;;7.50;1.90;;;;;;;12.07;78.38;96023.84;115757;1196;26752;-82
2021/09/24 06:11:09;;;;;;;;;;;;;;;12.09;78.35;96022.69;115776;1196;37451;-81
2021/09/24 06:13:39;;;;;;;2.60;1.70;;;;;;;12.08;78.31;96021.66;115736;1196;31725;-82
2021/09/24 06:16:10;;;;;;;5.70;2.40;;;;;;;12.08;78.01;96025.53;115780;1196;26141;-81
2021/09/24 06:18:41;;;;;;;5.00;1.90;;;;;;;12.07;77.54;96035.53;115755;1196;27056;-82
2021/09/24 06:21:12;;;;;;;7.00;2.00;;;;;;;12.08;77.74;96044.86;115757;1196;31491;-82
2021/09/24 06:23:43;;;;;;;3.20;1.80;;;;;;;12.12;77.72;96049.84;115690;1196;27311;-81
2021/09/24 06:26:14;;;;;;;4.50;1.80;;;;;;;12.13;77.13;96054.66;115674;1197;29463;-82
2021/09/24 06:28:45;;;;;;;4.30;2.20;;;;;;;12.13;77.41;96046.52;115755;1196;25998;-81
2021/09/24 06:31:15;;;;;;;5.90;2.20;;;;;;;12.16;77.03;96057.87;115755;1196;30225;-82
2021/09/24 06:33:46;;;;;;;3.50;2.00;;;;;;;12.15;76.68;96049.83;115822;1196;26768;-81
2021/09/24 06:36:19;;;;;;;4.80;2.30;;;;;;;12.12;76.14;96048.09;115828;1196;31706;-82
2021/09/24 06:38:50;;;;;;;3.20;2.20;;;;;;;12.09;75.81;96066.90;115753;1192;29171;-82
2021/09/24 06:41:19;;;;;;;;;;;;;;;12.06;75.85;96076.38;115755;1196;28653;-82
2021/09/24 06:43:50;;;;;;;8.60;3.30;;;;;;;12.02;75.70;96080.45;115821;1196;29221;-82
2021/09/24 06:46:21;;;;;;;5.40;2.40;;;;;;;11.99;75.95;96091.16;115750;1196;29495;-81
2021/09/24 06:48:52;;;;;;;5.20;2.30;;;;;;;11.98;75.88;96090.92;115755;1196;30008;-81
2021/09/24 06:51:23;;;;;;;5.30;2.80;;;;;;;11.96;76.01;96104.27;115769;1196;27407;-81
2021/09/24 06:53:53;;;;;;;5.90;2.70;;;;;;;11.96;76.24;96094.81;115745;1196;31469;-81
2021/09/24 06:56:24;;;;;;;7.50;3.20;;;;;;;11.96;76.38;96096.25;115739;1196;49009;-82
2021/09/24 06:58:55;;;;;;;7.20;2.70;;;;;;;11.96;76.44;96086.38;115783;1191;28026;-82
2021/09/24 07:01:26;;;;;;;12.20;3.80;;;;;;;11.93;76.34;96096.73;115809;1196;29320;-81
2021/09/24 07:03:55;;;;;;;;;;;;;;;11.92;76.71;96108.56;115748;1196;25680;-81
2021/09/24 07:06:26;;;;;;;11.20;3.30;;;;;;;11.91;76.56;96104.59;115784;1196;30086;-80
2021/09/24 07:08:57;;;;;;;5.50;3.30;;;;;;;11.89;76.69;96110.48;115826;1196;25914;-82
2021/09/24 07:11:27;;;;;;;6.80;2.90;;;;;;;11.87;76.75;96119.35;115736;1196;31899;-81
2021/09/24 07:13:57;;;;;;;;;;;;;;;11.87;76.56;96116.48;115794;1196;28813;-82
2021/09/24 07:16:27;;;;;;;8.60;3.80;;;;;;;11.89;76.50;96122.49;115770;1189;26735;-82
2021/09/24 07:18:59;;;;;;;6.90;3.40;;;;;;;11.92;76.54;96114.29;115768;1196;29019;-82
2021/09/24 07:21:30;;;;;;;7.60;3.60;;;;;;;11.93;76.37;96110.23;115729;1189;31597;-81
2021/09/24 07:24:03;;;;;;;6.60;3.30;;;;;;;11.94;76.47;96124.72;115766;1196;26004;-81
2021/09/24 07:26:34;;;;;;;8.30;4.00;;;;;;;11.97;76.48;96107.35;115799;1196;25318;-81
2021/09/24 07:29:06;;;;;;;5.70;3.90;;;;;;;11.99;76.51;96113.53;115746;1196;35535;-82
2021/09/24 07:31:36;;;;;;;8.70;3.40;;;;;;;11.99;76.59;96118.38;115743;1196;29276;-81
2021/09/24 07:34:07;;;;;;;14.40;4.20;;;;;;;12.00;76.88;96121.79;115756;1196;28381;-81
2021/09/24 07:36:38;;;;;;;6.70;3.30;;;;;;;12.06;76.76;96121.27;115704;1196;41818;-81
2021/09/24 07:39:09;;;;;;;6.10;3.30;;;;;;;12.10;75.69;96123.21;115743;1196;31479;-81
2021/09/24 07:41:40;;;;;;;5.40;2.50;;;;;;;12.14;75.71;96130.41;115697;1196;32828;-82
2021/09/24 07:44:10;;;;;;;5.70;2.60;;;;;;;12.19;74.90;96136.23;115775;1196;30044;-82
2021/09/24 07:46:41;;;;;;;7.50;2.90;;;;;;;12.24;74.78;96141.29;115772;1196;27403;-82
2021/09/24 07:49:12;;;;;;;4.90;2.80;;;;;;;12.29;74.48;96145.77;115674;1197;24933;-81
2021/09/24 07:51:43;;;;;;;4.80;2.50;;;;;;;12.33;74.42;96142.58;115758;1196;33629;-81
2021/09/24 07:54:14;;;;;;;6.00;2.70;;;;;;;12.32;73.52;96143.39;115735;1189;35365;-82
2021/09/24 07:56:45;;;;;;;6.20;2.50;;;;;;;12.29;72.56;96143.89;115772;1196;26806;-82
2021/09/24 07:59:16;;;;;;;6.50;2.50;;;;;;;12.26;72.62;96148.91;115811;1180;54443;-82
2021/09/24 08:01:47;;;;;;;5.20;2.90;;;;;;;12.31;72.91;96152.25;115798;1190;27319;-82
2021/09/24 08:04:17;;;;;;;5.50;2.80;;;;;;;12.31;71.58;96146.13;115843;1190;26956;-81
2021/09/24 08:06:48;;;;;;;7.20;2.90;;;;;;;12.26;71.87;96147.00;115751;1190;29722;-82
2021/09/24 08:09:19;;;;;;;6.60;2.90;;;;;;;12.20;72.22;96146.05;115797;1196;29692;-82
2021/09/24 08:11:50;;;;;;;9.20;2.90;;;;;;;12.15;71.92;96146.90;115758;1191;27046;-82
2021/09/24 08:14:21;;;;;;;8.30;3.30;;;;;;;12.11;71.98;96143.83;115760;1196;27064;-82
2021/09/24 08:16:52;;;;;;;5.50;2.80;;;;;;;12.05;72.31;96154.36;115770;1196;28517;-81
2021/09/24 08:19:22;;;;;;;8.00;3.00;;;;;;;12.05;72.89;96160.20;115741;1196;29177;-82
2021/09/24 08:21:53;;;;;;;7.50;3.50;;;;;;;12.09;73.35;96161.87;115738;1196;30298;-83
2021/09/24 08:24:24;;;;;;;6.30;3.30;;;;;;;12.13;73.63;96161.27;115743;1196;29829;-81
2021/09/24 08:26:55;;;;;;;7.90;3.70;;;;;;;12.18;73.17;96158.64;115619;1197;34343;-81
2021/09/24 08:29:25;;;;;;;11.80;3.60;;;;;;;12.18;73.00;96167.90;115628;1197;30161;-83
2021/09/24 08:31:56;;;;;;;7.10;3.00;;;;;;;12.19;73.18;96164.84;115642;1197;31200;-81
2021/09/24 08:34:27;;;;;;;7.10;2.90;;;;;;;12.20;72.24;96154.78;115742;1196;24472;-82
2021/09/24 08:36:58;;;;;;;7.30;2.80;;;;;;;12.18;71.33;96156.61;115656;1197;32018;-83
2021/09/24 08:39:29;;;;;;;7.00;2.80;;;;;;;12.23;70.17;96157.63;115630;1197;30409;-81
2021/09/24 08:41:59;;;;;;;4.10;2.20;;;;;;;12.27;69.37;96162.61;115688;1196;32996;-82
2021/09/24 08:55:36;;;;;;;7.40;2.60;;;;;;;12.43;68.30;96191.48;113322;1216;557929;-87
2021/09/24 08:58:08;;;;;;;7.00;2.50;;;;;;;12.44;68.19;96204.29;114584;1203;26272;-87
2021/09/24 09:00:42;;;;;;;6.80;2.90;;;;;;;12.45;68.10;96215.05;114626;1196;24706;-87
2021/09/24 09:03:14;;;;;;;5.30;2.90;;;;;;;12.41;68.20;96227.75;115397;1199;25361;-87
2021/09/24 09:05:47;;;;;;;8.60;2.90;;;;;;;12.30;68.07;96222.23;115205;1200;28176;-87
2021/09/24 09:08:23;;;;;;;10.30;3.40;;;;;;;12.20;68.56;96225.79;115285;1199;29371;-87
2021/09/24 09:10:57;;;;;;;8.00;3.20;;;;;;;12.16;69.03;96216.72;115322;1199;32191;-85
2021/09/24 09:13:32;;;;;;;7.30;3.00;;;;;;;12.15;69.19;96221.27;115350;1199;24837;-86
2021/09/24 09:16:07;;;;;;;9.10;3.60;;;;;;;12.04;68.60;96220.42;115307;1199;29082;-86
2021/09/24 09:18:40;;;;;;;8.00;3.40;;;;;;;11.92;69.09;96229.80;115442;1200;26081;-87
2021/09/24 09:21:14;;;;;;;4.30;2.90;;;;;;;11.84;69.31;96220.35;115228;1199;35387;-86
2021/09/24 09:23:48;;;;;;;7.50;3.50;;;;;;;11.87;69.30;96227.81;115227;1199;26563;-87
2021/09/24 09:26:20;;;;;;;6.20;3.80;;;;;;;11.94;69.09;96228.79;115379;1199;26374;-86
2021/09/24 09:28:57;;;;;;;8.90;3.60;;;;;;;11.96;69.00;96236.77;115367;1200;27644;-86
2021/09/24 09:31:32;;;;;;;10.60;4.20;;;;;;;11.95;69.19;96235.48;115302;1199;28057;-87
2021/09/24 09:34:07;;;;;;;9.70;3.40;;;;;;;11.92;69.62;96242.17;115586;1196;26643;-86
2021/09/24 09:36:42;;;;;;;8.80;2.80;;;;;;;11.89;69.26;96237.77;115707;1197;26886;-88
2021/09/24 09:39:16;;;;;;;7.50;3.10;;;;;;;11.82;69.38;96241.55;115643;1191;37194;-87
2021/09/24 09:41:52;;;;;;;6.30;3.30;;;;;;;11.81;69.54;96243.23;115566;1196;30581;-87
2021/09/24 09:44:29;;;;;;;8.60;3.60;;;;;;;11.78;69.83;96251.77;115547;1197;23974;-86
2021/09/24 09:47:00;;;;;;;9.60;2.90;;;;;;;11.78;70.37;96244.38;115548;1197;28602;-87
2021/09/24 09:49:32;;;;;;;8.80;3.40;;;;;;;11.78;70.02;96252.34;115512;1196;31388;-86
2021/09/24 09:52:12;;;;;;;9.60;3.80;;;;;;;11.75;70.19;96242.58;115564;1196;26151;-86
2021/09/24 09:54:43;;;;;;;10.50;3.40;;;;;;;11.72;70.30;96252.83;115623;1196;25807;-87
2021/09/24 09:57:17;;;;;;;8.90;3.00;;;;;;;11.73;70.59;96253.98;115506;1197;29150;-86
2021/09/24 09:59:54;;;;;;;7.60;3.50;;;;;;;11.75;70.35;96248.79;115564;1190;27715;-86
2021/09/24 10:02:31;;;;;;;10.40;3.30;;;;;;;11.78;70.69;96256.60;115564;1196;29348;-87
2021/09/24 10:05:03;;;;;;;6.20;3.40;;;;;;;11.82;70.87;96259.73;115484;1191;26011;-86
2021/09/24 10:07:40;;;;;;;8.80;3.70;;;;;;;11.88;71.06;96264.02;115512;1198;25922;-86
2021/09/24 10:10:13;;;;;;;8.90;3.50;;;;;;;11.99;70.81;96269.27;115560;1198;28686;-85
2021/09/24 10:12:45;;;;;;;4.80;2.80;;;;;;;12.05;70.76;96274.33;115539;1198;34118;-86
2021/09/24 10:15:17;;;;;;;8.90;3.00;;;;;;;12.16;70.59;96271.95;115596;1198;27618;-87
2021/09/24 10:17:48;;;;;;;8.80;3.90;;;;;;;12.31;71.01;96265.20;115547;1190;24445;-87
2021/09/24 10:20:19;;;;;;;9.00;3.60;;;;;;;12.45;70.22;96267.10;115541;1198;36816;-87
2021/09/24 10:22:49;;;;;;;9.30;3.40;;;;;;;12.51;70.21;96281.54;115608;1190;27238;-87
2021/09/24 10:25:22;;;;;;;;;;;;;;;12.61;70.05;96280.73;115557;1194;26842;-88
2021/09/24 10:27:53;;;;;;;10.60;3.50;;;;;;;12.79;70.27;96281.36;115489;1182;26922;-88
2021/09/24 10:30:28;;;;;;;6.70;2.60;;;;;;;12.82;69.83;96287.60;115647;1197;29338;-87
2021/09/24 10:33:01;;;;;;;9.10;3.50;;;;;;;12.81;69.55;96291.27;115730;1197;24485;-88
2021/09/24 10:35:48;;;;;;;8.70;3.00;;;;;;;12.78;68.33;96291.16;115507;1198;42508;-87
2021/09/24 10:38:22;;;;;;;6.30;2.80;;;;;;;12.69;67.87;96291.70;115517;1198;25056;-87
2021/09/24 10:41:02;;;;;;;9.10;3.30;;;;;;;12.68;68.12;96296.58;115495;1198;29112;-87
2021/09/24 10:43:47;;;;;;;5.70;2.90;;;;;;;12.65;68.06;96300.72;115549;1198;28389;-87
2021/09/24 10:46:37;;;;;;;7.70;2.60;;;;;;;12.61;67.81;96308.04;115496;1198;25527;-87
2021/09/24 10:49:32;;;;;;;12.50;2.80;;;;;;;12.51;67.97;96306.06;115705;1197;24727;-87
2021/09/24 10:52:12;;;;;;;7.10;2.40;;;;;;;12.39;67.62;96317.14;115484;1197;25825;-86
2021/09/24 10:55:07;;;;;;;5.70;2.60;;;;;;;12.32;67.45;96314.89;115559;1198;26137;-86
2021/09/24 10:57:53;;;;;;;5.60;2.50;;;;;;;12.20;67.09;96308.48;115621;1196;24997;-87
2021/09/24 11:00:30;;;;;;;7.10;2.30;;;;;;;12.11;67.25;96317.05;115563;1196;26536;-86
2021/09/24 11:03:10;;;;;;;7.20;2.80;;;;;;;12.11;67.20;96311.00;115556;1197;26183;-86
2021/09/24 11:05:59;;;;;;;6.50;2.90;;;;;;;12.15;67.74;96315.97;115560;1198;25607;-87
2021/09/24 11:08:43;;;;;;;5.80;2.70;;;;;;;12.22;67.98;96311.24;115528;1193;28661;-87
2021/09/24 11:11:24;;;;;;;6.80;3.00;;;;;;;12.28;68.00;96301.76;115575;1190;24141;-87
2021/09/24 11:13:59;;;;;;;8.20;2.80;;;;;;;12.37;67.78;96310.54;115683;1196;28281;-87
2021/09/24 11:16:44;;;;;;;5.90;2.30;;;;;;;12.53;67.75;96304.75;115552;1198;32871;-87
2021/09/24 11:19:31;;;;;;;8.10;2.60;;;;;;;12.61;67.72;96302.66;115553;1197;27477;-87
2021/09/24 11:22:21;;;;;;;9.30;2.70;;;;;;;12.76;67.88;96301.59;115640;1197;27584;-87
2021/09/24 11:25:11;;;;;;;8.50;2.60;;;;;;;12.90;67.52;96300.86;115451;1198;26484;-87
2021/09/24 11:27:47;;;;;;;5.70;3.00;;;;;;;13.01;67.55;96301.09;115556;1197;27221;-86
2021/09/24 11:30:23;;;;;;;7.60;3.00;;;;;;;13.13;68.17;96308.13;115565;1198;26463;-87
2021/09/24 11:32:57;;;;;;;5.30;2.70;;;;;;;13.29;67.72;96300.23;115512;1197;26200;-87
2021/09/24 11:35:40;;;;;;;9.10;2.40;;;;;;;13.34;66.98;96298.44;115524;1198;25357;-87
2021/09/24 11:38:19;;;;;;;7.00;2.80;;;;;;;13.24;66.81;96301.56;115508;1198;25229;-86
2021/09/24 11:40:54;;;;;;;5.50;2.50;;;;;;;13.12;67.07;96307.56;115493;1198;30980;-87
2021/09/24 11:43:30;;;;;;;5.60;2.50;;;;;;;13.16;67.40;96307.63;115567;1192;28274;-87
2021/09/24 11:46:10;;;;;;;7.10;3.00;;;;;;;13.21;67.58;96305.92;115540;1196;28898;-87
2021/09/24 11:48:42;;;;;;;9.00;3.20;;;;;;;13.18;67.40;96308.02;115618;1196;23133;-85
2021/09/24 11:51:19;;;;;;;7.00;3.10;;;;;;;13.12;67.55;96310.76;115503;1189;35590;-86
2021/09/24 11:53:55;;;;;;;7.90;3.20;;;;;;;13.01;67.50;96311.36;115577;1196;27503;-88
2021/09/24 11:56:35;;;;;;;4.50;2.40;;;;;;;12.86;67.63;96318.08;115554;1198;27159;-86
2021/09/24 11:59:09;;;;;;;5.30;2.30;;;;;;;12.72;68.03;96324.61;115538;1198;25193;-87
2021/09/24 12:01:44;;;;;;;7.00;3.00;;;;;;;12.63;68.24;96329.33;115578;1197;26273;-87
2021/09/24 12:04:15;;;;;;;6.20;2.90;;;;;;;12.57;68.80;96333.44;115550;1196;34136;-86